sensor_id;sensor_type;location;lat;lon;timestamp;temperature;humidity
1361;DHT22;674;45.552;-122.600;2023-05-18T00:00:33;29.10;1.00
1361;DHT22;674;45.552;-122.600;2023-05-18T00:03:02;29.10;1.00
1361;DHT22;674;45.552;-122.600;2023-05-18T00:05:31;29.00;1.00
1361;DHT22;674;45.552;-122.600;2023-05-18T00:08:01;29.10;1.00
1361;DHT22;674;45.552;-122.600;2023-05-18T00:10:29;29.10;1.00
1361;DHT22;674;45.552;-122.600;2023-05-18T00:12:58;29.10;1.00
1361;DHT22;674;45.552;-122.600;2023-05-18T00:15:26;29.10;1.00
1361;DHT22;674;45.552;-122.600;2023-05-18T00:17:55;29.10;1.00
1361;DHT22;674;45.552;-122.600;2023-05-18T00:20:25;29.20;1.00
1361;DHT22;674;45.552;-122.600;2023-05-18T00:22:53;29.20;1.00
1361;DHT22;674;45.552;-122.600;2023-05-18T00:25:22;29.10;1.00
1361;DHT22;674;45.552;-122.600;2023-05-18T00:27:50;29.20;1.00
1361;DHT22;674;45.552;-122.600;2023-05-18T00:30:19;29.20;1.00
1361;DHT22;674;45.552;-122.600;2023-05-18T00:36:17;29.10;1.00
1361;DHT22;674;45.552;-122.600;2023-05-18T00:38:45;29.00;1.00
1361;DHT22;674;45.552;-122.600;2023-05-18T00:41:14;28.90;1.00
1361;DHT22;674;45.552;-122.600;2023-05-18T00:43:42;28.90;1.00
1361;DHT22;674;45.552;-122.600;2023-05-18T00:46:11;28.80;1.00
1361;DHT22;674;45.552;-122.600;2023-05-18T00:48:39;28.80;1.00
1361;DHT22;674;45.552;-122.600;2023-05-18T00:51:08;28.80;1.00
1361;DHT22;674;45.552;-122.600;2023-05-18T00:53:37;28.90;1.00
1361;DHT22;674;45.552;-122.600;2023-05-18T00:56:08;28.90;1.00
1361;DHT22;674;45.552;-122.600;2023-05-18T00:58:38;28.80;1.00
1361;DHT22;674;45.552;-122.600;2023-05-18T01:01:11;28.60;1.00
1361;DHT22;674;45.552;-122.600;2023-05-18T01:03:39;28.60;1.00
1361;DHT22;674;45.552;-122.600;2023-05-18T01:06:10;28.60;1.00
1361;DHT22;674;45.552;-122.600;2023-05-18T01:08:40;28.50;1.00
1361;DHT22;674;45.552;-122.600;2023-05-18T01:11:54;28.40;1.00
1361;DHT22;674;45.552;-122.600;2023-05-18T01:14:48;28.40;1.00
1361;DHT22;674;45.552;-122.600;2023-05-18T01:24:03;28.40;1.00
1361;DHT22;674;45.552;-122.600;2023-05-18T01:26:40;28.40;1.00
1361;DHT22;674;45.552;-122.600;2023-05-18T01:29:13;28.40;1.00
1361;DHT22;674;45.552;-122.600;2023-05-18T01:31:46;28.40;1.00
1361;DHT22;674;45.552;-122.600;2023-05-18T01:34:26;28.60;1.00
1361;DHT22;674;45.552;-122.600;2023-05-18T01:36:54;28.60;1.00
1361;DHT22;674;45.552;-122.600;2023-05-18T01:39:23;28.70;1.00
1361;DHT22;674;45.552;-122.600;2023-05-18T01:41:57;28.60;1.00
1361;DHT22;674;45.552;-122.600;2023-05-18T01:44:30;28.50;1.00
1361;DHT22;674;45.552;-122.600;2023-05-18T01:47:22;28.60;1.00
1361;DHT22;674;45.552;-122.600;2023-05-18T01:55:06;28.50;1.00
1361;DHT22;674;45.552;-122.600;2023-05-18T01:57:36;28.30;1.00
1361;DHT22;674;45.552;-122.600;2023-05-18T02:00:07;28.20;1.00
1361;DHT22;674;45.552;-122.600;2023-05-18T02:02:37;28.20;1.00
1361;DHT22;674;45.552;-122.600;2023-05-18T02:05:06;28.30;1.00
1361;DHT22;674;45.552;-122.600;2023-05-18T02:07:39;28.30;1.00
1361;DHT22;674;45.552;-122.600;2023-05-18T02:10:11;28.40;1.00
1361;DHT22;674;45.552;-122.600;2023-05-18T02:12:39;28.40;1.00
1361;DHT22;674;45.552;-122.600;2023-05-18T02:15:08;28.40;1.00
1361;DHT22;674;45.552;-122.600;2023-05-18T02:17:37;28.30;1.00
1361;DHT22;674;45.552;-122.600;2023-05-18T02:20:06;28.20;1.00
1361;DHT22;674;45.552;-122.600;2023-05-18T02:22:35;28.10;1.00
1361;DHT22;674;45.552;-122.600;2023-05-18T02:25:04;27.90;1.00
1361;DHT22;674;45.552;-122.600;2023-05-18T02:27:34;27.80;1.00
1361;DHT22;674;45.552;-122.600;2023-05-18T02:30:04;27.70;1.00
1361;DHT22;674;45.552;-122.600;2023-05-18T02:32:35;27.60;1.00
1361;DHT22;674;45.552;-122.600;2023-05-18T02:35:07;27.50;1.00
1361;DHT22;674;45.552;-122.600;2023-05-18T02:37:36;27.40;1.00
1361;DHT22;674;45.552;-122.600;2023-05-18T02:40:09;27.20;1.00
1361;DHT22;674;45.552;-122.600;2023-05-18T02:42:38;26.90;1.00
1361;DHT22;674;45.552;-122.600;2023-05-18T02:45:07;26.70;1.00
1361;DHT22;674;45.552;-122.600;2023-05-18T02:47:36;26.50;1.00
1361;DHT22;674;45.552;-122.600;2023-05-18T02:50:05;26.40;1.00
1361;DHT22;674;45.552;-122.600;2023-05-18T02:52:33;26.20;1.00
1361;DHT22;674;45.552;-122.600;2023-05-18T02:55:02;26.20;1.00
1361;DHT22;674;45.552;-122.600;2023-05-18T02:57:31;26.20;1.00
1361;DHT22;674;45.552;-122.600;2023-05-18T02:59:59;26.10;1.00
1361;DHT22;674;45.552;-122.600;2023-05-18T03:02:28;26.10;1.00
1361;DHT22;674;45.552;-122.600;2023-05-18T03:04:56;25.90;1.00
1361;DHT22;674;45.552;-122.600;2023-05-18T03:07:25;25.70;1.00
1361;DHT22;674;45.552;-122.600;2023-05-18T03:09:54;25.60;1.00
1361;DHT22;674;45.552;-122.600;2023-05-18T03:12:22;25.50;1.00
1361;DHT22;674;45.552;-122.600;2023-05-18T03:14:51;25.40;1.00
1361;DHT22;674;45.552;-122.600;2023-05-18T03:17:19;25.40;1.00
1361;DHT22;674;45.552;-122.600;2023-05-18T03:19:48;25.30;1.00
1361;DHT22;674;45.552;-122.600;2023-05-18T03:22:16;25.20;1.00
1361;DHT22;674;45.552;-122.600;2023-05-18T03:24:44;25.10;1.00
1361;DHT22;674;45.552;-122.600;2023-05-18T03:27:13;24.90;1.00
1361;DHT22;674;45.552;-122.600;2023-05-18T03:29:43;24.80;1.00
1361;DHT22;674;45.552;-122.600;2023-05-18T03:32:12;24.60;1.00
1361;DHT22;674;45.552;-122.600;2023-05-18T03:34:40;24.50;1.00
1361;DHT22;674;45.552;-122.600;2023-05-18T03:37:11;24.30;1.00
1361;DHT22;674;45.552;-122.600;2023-05-18T03:39:40;24.30;1.00
1361;DHT22;674;45.552;-122.600;2023-05-18T03:42:08;24.10;1.00
1361;DHT22;674;45.552;-122.600;2023-05-18T03:44:37;24.00;1.00
1361;DHT22;674;45.552;-122.600;2023-05-18T03:47:05;23.80;1.00
1361;DHT22;674;45.552;-122.600;2023-05-18T03:49:34;23.70;1.00
1361;DHT22;674;45.552;-122.600;2023-05-18T03:52:03;23.50;1.00
1361;DHT22;674;45.552;-122.600;2023-05-18T03:54:32;23.40;1.00
1361;DHT22;674;45.552;-122.600;2023-05-18T03:57:00;23.20;1.00
1361;DHT22;674;45.552;-122.600;2023-05-18T03:59:29;23.10;1.00
1361;DHT22;674;45.552;-122.600;2023-05-18T04:01:57;23.10;1.00
1361;DHT22;674;45.552;-122.600;2023-05-18T04:04:29;23.00;1.00
1361;DHT22;674;45.552;-122.600;2023-05-18T04:06:57;22.90;1.00
1361;DHT22;674;45.552;-122.600;2023-05-18T04:09:29;22.80;1.00
1361;DHT22;674;45.552;-122.600;2023-05-18T04:11:57;22.80;1.00
1361;DHT22;674;45.552;-122.600;2023-05-18T04:14:25;22.80;1.00
1361;DHT22;674;45.552;-122.600;2023-05-18T04:16:55;22.80;1.00
1361;DHT22;674;45.552;-122.600;2023-05-18T04:19:25;22.90;1.00
1361;DHT22;674;45.552;-122.600;2023-05-18T04:21:53;22.90;1.00
1361;DHT22;674;45.552;-122.600;2023-05-18T04:24:25;22.90;1.00
1361;DHT22;674;45.552;-122.600;2023-05-18T04:26:56;22.90;1.00
1361;DHT22;674;45.552;-122.600;2023-05-18T04:29:27;23.00;1.00
1361;DHT22;674;45.552;-122.600;2023-05-18T04:31:55;23.00;1.00
1361;DHT22;674;45.552;-122.600;2023-05-18T04:34:28;23.00;1.00
1361;DHT22;674;45.552;-122.600;2023-05-18T04:36:57;23.10;1.00
1361;DHT22;674;45.552;-122.600;2023-05-18T04:39:25;23.20;1.00
1361;DHT22;674;45.552;-122.600;2023-05-18T04:41:54;23.30;1.00
1361;DHT22;674;45.552;-122.600;2023-05-18T04:44:28;23.40;1.00
1361;DHT22;674;45.552;-122.600;2023-05-18T04:46:57;23.40;1.00
1361;DHT22;674;45.552;-122.600;2023-05-18T04:49:26;23.40;1.00
1361;DHT22;674;45.552;-122.600;2023-05-18T04:51:55;23.50;1.00
1361;DHT22;674;45.552;-122.600;2023-05-18T04:54:25;23.50;1.00
1361;DHT22;674;45.552;-122.600;2023-05-18T04:57:03;23.50;1.00
1361;DHT22;674;45.552;-122.600;2023-05-18T04:59:32;23.50;1.00
1361;DHT22;674;45.552;-122.600;2023-05-18T05:02:04;23.50;1.00
1361;DHT22;674;45.552;-122.600;2023-05-18T05:04:32;23.40;1.00
1361;DHT22;674;45.552;-122.600;2023-05-18T05:07:01;23.40;1.00
1361;DHT22;674;45.552;-122.600;2023-05-18T05:09:29;23.40;1.00
1361;DHT22;674;45.552;-122.600;2023-05-18T05:11:58;23.30;1.00
1361;DHT22;674;45.552;-122.600;2023-05-18T05:14:26;23.40;1.00
1361;DHT22;674;45.552;-122.600;2023-05-18T05:16:55;23.40;1.00
1361;DHT22;674;45.552;-122.600;2023-05-18T05:19:26;23.40;1.00
1361;DHT22;674;45.552;-122.600;2023-05-18T05:21:54;23.40;1.00
1361;DHT22;674;45.552;-122.600;2023-05-18T05:24:23;23.30;1.00
1361;DHT22;674;45.552;-122.600;2023-05-18T05:26:51;23.30;1.00
1361;DHT22;674;45.552;-122.600;2023-05-18T05:29:20;23.30;1.00
1361;DHT22;674;45.552;-122.600;2023-05-18T05:31:48;23.30;1.00
1361;DHT22;674;45.552;-122.600;2023-05-18T05:34:17;23.30;1.00
1361;DHT22;674;45.552;-122.600;2023-05-18T05:36:46;23.30;1.00
1361;DHT22;674;45.552;-122.600;2023-05-18T05:39:14;23.20;1.00
1361;DHT22;674;45.552;-122.600;2023-05-18T05:41:42;23.10;1.00
1361;DHT22;674;45.552;-122.600;2023-05-18T05:44:11;23.10;1.00
1361;DHT22;674;45.552;-122.600;2023-05-18T05:46:39;23.00;1.00
1361;DHT22;674;45.552;-122.600;2023-05-18T05:49:08;22.90;1.00
1361;DHT22;674;45.552;-122.600;2023-05-18T05:51:36;22.90;1.00
1361;DHT22;674;45.552;-122.600;2023-05-18T05:54:08;22.90;1.00
1361;DHT22;674;45.552;-122.600;2023-05-18T05:56:36;22.80;1.00
1361;DHT22;674;45.552;-122.600;2023-05-18T05:59:05;22.80;1.00
1361;DHT22;674;45.552;-122.600;2023-05-18T06:01:33;22.70;1.00
1361;DHT22;674;45.552;-122.600;2023-05-18T06:04:02;22.60;1.00
1361;DHT22;674;45.552;-122.600;2023-05-18T06:06:33;22.60;1.00
1361;DHT22;674;45.552;-122.600;2023-05-18T06:09:01;22.60;1.00
1361;DHT22;674;45.552;-122.600;2023-05-18T06:11:31;22.50;1.00
1361;DHT22;674;45.552;-122.600;2023-05-18T06:13:59;22.50;1.00
1361;DHT22;674;45.552;-122.600;2023-05-18T06:16:28;22.40;1.00
1361;DHT22;674;45.552;-122.600;2023-05-18T06:18:56;22.40;1.00
1361;DHT22;674;45.552;-122.600;2023-05-18T06:21:25;22.40;1.00
1361;DHT22;674;45.552;-122.600;2023-05-18T06:23:53;22.40;1.00
1361;DHT22;674;45.552;-122.600;2023-05-18T06:26:22;22.30;1.00
1361;DHT22;674;45.552;-122.600;2023-05-18T06:28:50;22.20;1.00
1361;DHT22;674;45.552;-122.600;2023-05-18T06:31:19;22.20;1.00
1361;DHT22;674;45.552;-122.600;2023-05-18T06:33:48;22.20;1.00
1361;DHT22;674;45.552;-122.600;2023-05-18T06:36:16;22.10;1.00
1361;DHT22;674;45.552;-122.600;2023-05-18T06:38:45;22.10;1.00
1361;DHT22;674;45.552;-122.600;2023-05-18T06:41:13;22.00;1.00
1361;DHT22;674;45.552;-122.600;2023-05-18T06:43:42;21.90;1.00
1361;DHT22;674;45.552;-122.600;2023-05-18T06:46:18;21.80;1.00
1361;DHT22;674;45.552;-122.600;2023-05-18T06:48:48;21.70;1.00
1361;DHT22;674;45.552;-122.600;2023-05-18T06:51:16;21.60;1.00
1361;DHT22;674;45.552;-122.600;2023-05-18T06:53:44;21.50;1.00
1361;DHT22;674;45.552;-122.600;2023-05-18T06:56:13;21.40;1.00
1361;DHT22;674;45.552;-122.600;2023-05-18T06:58:42;21.30;1.00
1361;DHT22;674;45.552;-122.600;2023-05-18T07:01:10;21.20;1.00
1361;DHT22;674;45.552;-122.600;2023-05-18T07:03:39;21.10;1.00
1361;DHT22;674;45.552;-122.600;2023-05-18T07:06:07;21.00;1.00
1361;DHT22;674;45.552;-122.600;2023-05-18T07:08:36;20.90;1.00
1361;DHT22;674;45.552;-122.600;2023-05-18T07:11:04;20.80;1.00
1361;DHT22;674;45.552;-122.600;2023-05-18T07:13:33;20.70;1.00
1361;DHT22;674;45.552;-122.600;2023-05-18T07:16:01;20.60;1.00
1361;DHT22;674;45.552;-122.600;2023-05-18T07:18:30;20.60;1.00
1361;DHT22;674;45.552;-122.600;2023-05-18T07:20:58;20.50;1.00
1361;DHT22;674;45.552;-122.600;2023-05-18T07:23:26;20.40;1.00
1361;DHT22;674;45.552;-122.600;2023-05-18T07:25:56;20.40;1.00
1361;DHT22;674;45.552;-122.600;2023-05-18T07:28:24;20.30;1.00
1361;DHT22;674;45.552;-122.600;2023-05-18T07:30:53;20.20;1.00
1361;DHT22;674;45.552;-122.600;2023-05-18T07:33:21;20.20;1.00
1361;DHT22;674;45.552;-122.600;2023-05-18T07:35:50;20.10;1.00
1361;DHT22;674;45.552;-122.600;2023-05-18T07:38:18;20.00;1.00
1361;DHT22;674;45.552;-122.600;2023-05-18T07:40:46;20.00;1.00
1361;DHT22;674;45.552;-122.600;2023-05-18T07:43:15;19.90;1.00
1361;DHT22;674;45.552;-122.600;2023-05-18T07:45:43;19.90;1.00
1361;DHT22;674;45.552;-122.600;2023-05-18T07:48:12;19.80;1.00
1361;DHT22;674;45.552;-122.600;2023-05-18T07:50:40;19.70;1.00
1361;DHT22;674;45.552;-122.600;2023-05-18T07:53:09;19.60;1.00
1361;DHT22;674;45.552;-122.600;2023-05-18T07:55:37;19.60;1.00
1361;DHT22;674;45.552;-122.600;2023-05-18T07:58:05;19.50;1.00
1361;DHT22;674;45.552;-122.600;2023-05-18T08:00:34;19.50;1.00
1361;DHT22;674;45.552;-122.600;2023-05-18T08:03:03;19.50;1.00
1361;DHT22;674;45.552;-122.600;2023-05-18T08:05:33;19.40;1.00
1361;DHT22;674;45.552;-122.600;2023-05-18T08:08:02;19.30;1.00
1361;DHT22;674;45.552;-122.600;2023-05-18T08:10:33;19.30;1.00
1361;DHT22;674;45.552;-122.600;2023-05-18T08:13:01;19.20;1.00
1361;DHT22;674;45.552;-122.600;2023-05-18T08:15:30;19.20;1.00
1361;DHT22;674;45.552;-122.600;2023-05-18T08:17:59;19.20;1.00
1361;DHT22;674;45.552;-122.600;2023-05-18T08:20:27;19.10;1.00
1361;DHT22;674;45.552;-122.600;2023-05-18T08:22:59;19.10;1.00
1361;DHT22;674;45.552;-122.600;2023-05-18T08:25:27;19.00;2.00
1361;DHT22;674;45.552;-122.600;2023-05-18T08:27:56;19.00;3.20
1361;DHT22;674;45.552;-122.600;2023-05-18T08:30:24;18.90;7.80
1361;DHT22;674;45.552;-122.600;2023-05-18T08:32:53;18.90;11.60
1361;DHT22;674;45.552;-122.600;2023-05-18T08:35:22;18.90;8.70
1361;DHT22;674;45.552;-122.600;2023-05-18T08:37:50;18.80;10.10
1361;DHT22;674;45.552;-122.600;2023-05-18T08:40:19;18.80;18.60
1361;DHT22;674;45.552;-122.600;2023-05-18T08:43:02;18.80;23.20
1361;DHT22;674;45.552;-122.600;2023-05-18T08:48:27;18.70;27.80
1361;DHT22;674;45.552;-122.600;2023-05-18T08:51:00;18.60;27.80
1361;DHT22;674;45.552;-122.600;2023-05-18T08:53:32;18.60;34.40
1361;DHT22;674;45.552;-122.600;2023-05-18T08:56:01;18.60;39.30
1361;DHT22;674;45.552;-122.600;2023-05-18T08:58:43;18.50;37.10
1361;DHT22;674;45.552;-122.600;2023-05-18T09:01:14;18.50;36.90
1361;DHT22;674;45.552;-122.600;2023-05-18T09:03:45;18.40;36.70
1361;DHT22;674;45.552;-122.600;2023-05-18T09:06:16;18.40;36.40
1361;DHT22;674;45.552;-122.600;2023-05-18T09:08:45;18.40;36.90
1361;DHT22;674;45.552;-122.600;2023-05-18T09:11:15;18.40;42.20
1361;DHT22;674;45.552;-122.600;2023-05-18T09:13:44;18.30;49.80
1361;DHT22;674;45.552;-122.600;2023-05-18T09:16:13;18.30;54.00
1361;DHT22;674;45.552;-122.600;2023-05-18T09:18:42;18.30;59.10
1361;DHT22;674;45.552;-122.600;2023-05-18T09:21:11;18.20;60.80
1361;DHT22;674;45.552;-122.600;2023-05-18T09:23:39;18.20;60.00
1361;DHT22;674;45.552;-122.600;2023-05-18T09:26:08;18.20;60.70
1361;DHT22;674;45.552;-122.600;2023-05-18T09:28:38;18.10;60.30
1361;DHT22;674;45.552;-122.600;2023-05-18T09:31:08;18.10;66.10
1361;DHT22;674;45.552;-122.600;2023-05-18T09:33:39;18.10;70.20
1361;DHT22;674;45.552;-122.600;2023-05-18T09:36:10;18.00;72.50
1361;DHT22;674;45.552;-122.600;2023-05-18T09:38:40;18.00;70.70
1361;DHT22;674;45.552;-122.600;2023-05-18T09:41:16;18.00;71.20
1361;DHT22;674;45.552;-122.600;2023-05-18T09:43:47;18.00;75.30
1361;DHT22;674;45.552;-122.600;2023-05-18T09:46:16;18.00;78.00
1361;DHT22;674;45.552;-122.600;2023-05-18T09:48:49;18.00;77.40
1361;DHT22;674;45.552;-122.600;2023-05-18T09:51:18;18.00;80.20
1361;DHT22;674;45.552;-122.600;2023-05-18T09:56:25;18.00;77.70
1361;DHT22;674;45.552;-122.600;2023-05-18T09:58:54;18.00;76.50
1361;DHT22;674;45.552;-122.600;2023-05-18T10:01:22;18.10;78.60
1361;DHT22;674;45.552;-122.600;2023-05-18T10:03:51;18.00;79.50
1361;DHT22;674;45.552;-122.600;2023-05-18T10:06:26;18.00;81.40
1361;DHT22;674;45.552;-122.600;2023-05-18T10:08:56;18.00;84.10
1361;DHT22;674;45.552;-122.600;2023-05-18T10:11:30;17.90;82.50
1361;DHT22;674;45.552;-122.600;2023-05-18T10:13:59;17.90;87.00
1361;DHT22;674;45.552;-122.600;2023-05-18T10:16:28;17.80;88.30
1361;DHT22;674;45.552;-122.600;2023-05-18T10:18:56;17.80;89.20
1361;DHT22;674;45.552;-122.600;2023-05-18T10:21:27;17.80;90.50
1361;DHT22;674;45.552;-122.600;2023-05-18T10:23:59;17.70;92.70
1361;DHT22;674;45.552;-122.600;2023-05-18T10:26:29;17.70;92.40
1361;DHT22;674;45.552;-122.600;2023-05-18T10:29:03;17.60;92.90
1361;DHT22;674;45.552;-122.600;2023-05-18T10:31:34;17.60;94.00
1361;DHT22;674;45.552;-122.600;2023-05-18T10:34:05;17.50;93.60
1361;DHT22;674;45.552;-122.600;2023-05-18T10:36:35;17.50;95.60
1361;DHT22;674;45.552;-122.600;2023-05-18T10:39:05;17.50;97.20
1361;DHT22;674;45.552;-122.600;2023-05-18T10:41:35;17.40;97.30
1361;DHT22;674;45.552;-122.600;2023-05-18T10:44:05;17.40;98.80
1361;DHT22;674;45.552;-122.600;2023-05-18T10:46:34;17.40;99.90
1361;DHT22;674;45.552;-122.600;2023-05-18T10:49:03;17.30;99.90
1361;DHT22;674;45.552;-122.600;2023-05-18T10:51:44;17.30;99.90
1361;DHT22;674;45.552;-122.600;2023-05-18T10:54:14;17.20;99.90
1361;DHT22;674;45.552;-122.600;2023-05-18T10:56:44;17.20;99.90
1361;DHT22;674;45.552;-122.600;2023-05-18T10:59:14;17.20;99.90
1361;DHT22;674;45.552;-122.600;2023-05-18T11:01:46;17.10;99.90
1361;DHT22;674;45.552;-122.600;2023-05-18T11:04:23;17.10;99.90
1361;DHT22;674;45.552;-122.600;2023-05-18T11:07:00;17.00;99.90
1361;DHT22;674;45.552;-122.600;2023-05-18T11:09:30;17.00;99.90
1361;DHT22;674;45.552;-122.600;2023-05-18T11:11:59;16.90;99.90
1361;DHT22;674;45.552;-122.600;2023-05-18T11:14:31;16.90;99.90
1361;DHT22;674;45.552;-122.600;2023-05-18T11:17:19;16.90;99.90
1361;DHT22;674;45.552;-122.600;2023-05-18T11:27:56;16.70;99.90
1361;DHT22;674;45.552;-122.600;2023-05-18T11:33:14;16.50;89.00
1361;DHT22;674;45.552;-122.600;2023-05-18T11:36:08;16.60;61.50
1361;DHT22;674;45.552;-122.600;2023-05-18T11:41:27;16.50;13.40
1361;DHT22;674;45.552;-122.600;2023-05-18T11:44:14;16.50;3.70
1361;DHT22;674;45.552;-122.600;2023-05-18T11:46:59;16.50;1.00
1361;DHT22;674;45.552;-122.600;2023-05-18T11:49:42;16.50;1.00
1361;DHT22;674;45.552;-122.600;2023-05-18T11:52:21;16.50;1.00
1361;DHT22;674;45.552;-122.600;2023-05-18T12:00:05;16.40;1.00
1361;DHT22;674;45.552;-122.600;2023-05-18T12:02:45;16.40;1.00
1361;DHT22;674;45.552;-122.600;2023-05-18T12:05:14;16.40;1.00
1361;DHT22;674;45.552;-122.600;2023-05-18T12:07:42;16.40;1.00
1361;DHT22;674;45.552;-122.600;2023-05-18T12:10:13;16.40;1.00
1361;DHT22;674;45.552;-122.600;2023-05-18T12:12:46;16.30;1.00
1361;DHT22;674;45.552;-122.600;2023-05-18T12:15:14;16.30;1.00
1361;DHT22;674;45.552;-122.600;2023-05-18T12:17:47;16.30;1.00
1361;DHT22;674;45.552;-122.600;2023-05-18T12:20:19;16.30;1.00
1361;DHT22;674;45.552;-122.600;2023-05-18T12:22:50;16.20;1.00
1361;DHT22;674;45.552;-122.600;2023-05-18T12:25:21;16.20;1.00
1361;DHT22;674;45.552;-122.600;2023-05-18T12:27:52;16.20;1.00
1361;DHT22;674;45.552;-122.600;2023-05-18T12:30:25;16.20;1.00
1361;DHT22;674;45.552;-122.600;2023-05-18T12:33:02;16.20;1.00
1361;DHT22;674;45.552;-122.600;2023-05-18T12:35:31;16.10;1.00
1361;DHT22;674;45.552;-122.600;2023-05-18T12:38:00;16.10;1.00
1361;DHT22;674;45.552;-122.600;2023-05-18T12:40:36;16.10;1.00
1361;DHT22;674;45.552;-122.600;2023-05-18T12:43:13;16.00;1.00
1361;DHT22;674;45.552;-122.600;2023-05-18T12:45:43;16.00;1.00
1361;DHT22;674;45.552;-122.600;2023-05-18T12:48:12;16.00;1.00
1361;DHT22;674;45.552;-122.600;2023-05-18T12:50:48;16.00;1.00
1361;DHT22;674;45.552;-122.600;2023-05-18T12:53:17;15.90;1.00
1361;DHT22;674;45.552;-122.600;2023-05-18T12:55:58;15.90;1.00
1361;DHT22;674;45.552;-122.600;2023-05-18T12:58:37;15.90;1.00
1361;DHT22;674;45.552;-122.600;2023-05-18T13:01:08;15.90;1.00
1361;DHT22;674;45.552;-122.600;2023-05-18T13:03:40;15.80;1.00
1361;DHT22;674;45.552;-122.600;2023-05-18T13:06:09;15.80;9.20
1361;DHT22;674;45.552;-122.600;2023-05-18T13:08:37;15.80;13.00
1361;DHT22;674;45.552;-122.600;2023-05-18T13:11:07;15.80;12.00
1361;DHT22;674;45.552;-122.600;2023-05-18T13:14:03;15.70;14.80
1361;DHT22;674;45.552;-122.600;2023-05-18T13:16:36;15.70;14.90
1361;DHT22;674;45.552;-122.600;2023-05-18T13:19:08;15.70;13.10
1361;DHT22;674;45.552;-122.600;2023-05-18T13:21:36;15.70;10.00
1361;DHT22;674;45.552;-122.600;2023-05-18T13:24:06;15.70;14.80
1361;DHT22;674;45.552;-122.600;2023-05-18T13:26:34;15.70;11.50
1361;DHT22;674;45.552;-122.600;2023-05-18T13:29:03;15.80;17.00
1361;DHT22;674;45.552;-122.600;2023-05-18T13:31:31;15.80;12.30
1361;DHT22;674;45.552;-122.600;2023-05-18T13:34:00;15.70;12.70
1361;DHT22;674;45.552;-122.600;2023-05-18T13:36:28;15.80;14.00
1361;DHT22;674;45.552;-122.600;2023-05-18T13:38:58;15.80;16.80
1361;DHT22;674;45.552;-122.600;2023-05-18T13:41:27;15.80;18.90
1361;DHT22;674;45.552;-122.600;2023-05-18T13:43:56;15.80;25.40
1361;DHT22;674;45.552;-122.600;2023-05-18T13:46:24;15.90;23.00
1361;DHT22;674;45.552;-122.600;2023-05-18T13:48:53;15.80;17.60
1361;DHT22;674;45.552;-122.600;2023-05-18T13:51:21;15.90;14.60
1361;DHT22;674;45.552;-122.600;2023-05-18T13:53:49;16.00;20.50
1361;DHT22;674;45.552;-122.600;2023-05-18T13:56:18;16.10;15.70
1361;DHT22;674;45.552;-122.600;2023-05-18T13:58:46;16.20;16.30
1361;DHT22;674;45.552;-122.600;2023-05-18T14:01:15;16.20;13.90
1361;DHT22;674;45.552;-122.600;2023-05-18T14:03:44;16.30;14.50
1361;DHT22;674;45.552;-122.600;2023-05-18T14:06:13;16.40;6.60
1361;DHT22;674;45.552;-122.600;2023-05-18T14:08:41;16.40;1.00
1361;DHT22;674;45.552;-122.600;2023-05-18T14:11:10;16.50;1.00
1361;DHT22;674;45.552;-122.600;2023-05-18T14:13:38;16.50;1.00
1361;DHT22;674;45.552;-122.600;2023-05-18T14:16:07;16.60;1.00
1361;DHT22;674;45.552;-122.600;2023-05-18T14:18:35;16.70;1.00
1361;DHT22;674;45.552;-122.600;2023-05-18T14:21:04;16.70;1.00
1361;DHT22;674;45.552;-122.600;2023-05-18T14:23:32;16.80;1.00
1361;DHT22;674;45.552;-122.600;2023-05-18T14:26:00;16.80;1.00
1361;DHT22;674;45.552;-122.600;2023-05-18T14:28:29;16.90;1.00
1361;DHT22;674;45.552;-122.600;2023-05-18T14:30:57;16.90;1.00
1361;DHT22;674;45.552;-122.600;2023-05-18T14:33:26;17.00;1.00
1361;DHT22;674;45.552;-122.600;2023-05-18T14:35:54;17.10;1.00
1361;DHT22;674;45.552;-122.600;2023-05-18T14:38:24;17.10;1.00
1361;DHT22;674;45.552;-122.600;2023-05-18T14:40:53;17.20;1.00
1361;DHT22;674;45.552;-122.600;2023-05-18T14:43:22;17.20;1.00
1361;DHT22;674;45.552;-122.600;2023-05-18T14:45:50;17.20;1.00
1361;DHT22;674;45.552;-122.600;2023-05-18T14:48:34;17.20;1.00
1361;DHT22;674;45.552;-122.600;2023-05-18T14:51:03;17.30;1.00
1361;DHT22;674;45.552;-122.600;2023-05-18T14:53:31;17.30;1.00
1361;DHT22;674;45.552;-122.600;2023-05-18T14:56:00;17.40;1.00
1361;DHT22;674;45.552;-122.600;2023-05-18T14:58:32;17.50;1.00
1361;DHT22;674;45.552;-122.600;2023-05-18T15:01:02;17.50;1.00
1361;DHT22;674;45.552;-122.600;2023-05-18T15:03:30;17.60;1.00
1361;DHT22;674;45.552;-122.600;2023-05-18T15:05:58;17.60;1.00
1361;DHT22;674;45.552;-122.600;2023-05-18T15:08:27;17.70;1.00
1361;DHT22;674;45.552;-122.600;2023-05-18T15:10:55;17.70;1.00
1361;DHT22;674;45.552;-122.600;2023-05-18T15:13:24;17.70;1.00
1361;DHT22;674;45.552;-122.600;2023-05-18T15:15:52;17.80;1.00
1361;DHT22;674;45.552;-122.600;2023-05-18T15:18:21;17.70;1.00
1361;DHT22;674;45.552;-122.600;2023-05-18T15:20:49;17.70;1.00
1361;DHT22;674;45.552;-122.600;2023-05-18T15:23:17;17.80;1.00
1361;DHT22;674;45.552;-122.600;2023-05-18T15:25:46;17.90;1.00
1361;DHT22;674;45.552;-122.600;2023-05-18T15:28:14;18.00;1.00
1361;DHT22;674;45.552;-122.600;2023-05-18T15:30:43;18.00;1.00
1361;DHT22;674;45.552;-122.600;2023-05-18T15:33:11;18.00;1.00
1361;DHT22;674;45.552;-122.600;2023-05-18T15:35:40;18.00;1.00
1361;DHT22;674;45.552;-122.600;2023-05-18T15:38:08;18.00;1.00
1361;DHT22;674;45.552;-122.600;2023-05-18T15:40:36;18.10;1.00
1361;DHT22;674;45.552;-122.600;2023-05-18T15:43:05;18.30;1.00
1361;DHT22;674;45.552;-122.600;2023-05-18T15:45:33;18.40;1.00
1361;DHT22;674;45.552;-122.600;2023-05-18T15:48:02;18.50;1.00
1361;DHT22;674;45.552;-122.600;2023-05-18T15:50:30;18.70;1.00
1361;DHT22;674;45.552;-122.600;2023-05-18T15:52:59;18.80;1.00
1361;DHT22;674;45.552;-122.600;2023-05-18T15:55:27;18.90;1.00
1361;DHT22;674;45.552;-122.600;2023-05-18T15:57:56;18.70;1.00
1361;DHT22;674;45.552;-122.600;2023-05-18T16:00:24;18.60;1.00
1361;DHT22;674;45.552;-122.600;2023-05-18T16:02:53;18.60;1.00
1361;DHT22;674;45.552;-122.600;2023-05-18T16:05:21;18.60;1.00
1361;DHT22;674;45.552;-122.600;2023-05-18T16:07:50;18.60;1.00
1361;DHT22;674;45.552;-122.600;2023-05-18T16:10:20;18.60;1.00
1361;DHT22;674;45.552;-122.600;2023-05-18T16:12:50;18.50;1.00
1361;DHT22;674;45.552;-122.600;2023-05-18T16:15:18;18.50;1.00
1361;DHT22;674;45.552;-122.600;2023-05-18T16:17:51;18.60;1.00
1361;DHT22;674;45.552;-122.600;2023-05-18T16:20:19;18.70;1.00
1361;DHT22;674;45.552;-122.600;2023-05-18T16:22:48;18.70;1.00
1361;DHT22;674;45.552;-122.600;2023-05-18T16:25:18;18.80;1.00
1361;DHT22;674;45.552;-122.600;2023-05-18T16:27:46;18.80;1.00
1361;DHT22;674;45.552;-122.600;2023-05-18T16:30:15;18.90;1.00
1361;DHT22;674;45.552;-122.600;2023-05-18T16:32:43;18.90;1.00
1361;DHT22;674;45.552;-122.600;2023-05-18T16:35:12;18.90;1.00
1361;DHT22;674;45.552;-122.600;2023-05-18T16:37:40;19.00;1.00
1361;DHT22;674;45.552;-122.600;2023-05-18T16:40:09;19.10;1.00